sensor_id;sensor_type;location;lat;lon;timestamp;P1;durP1;ratioP1;P2;durP2;ratioP2
37955;SDS011;23776;51.592;7.180;2022-12-07T00:01:31;37.78;;;18.95;;
37955;SDS011;23776;51.592;7.180;2022-12-07T00:03:59;37.33;;;19.13;;
37955;SDS011;23776;51.592;7.180;2022-12-07T00:06:30;38.20;;;19.63;;
37955;SDS011;23776;51.592;7.180;2022-12-07T00:08:56;39.03;;;19.60;;
37955;SDS011;23776;51.592;7.180;2022-12-07T00:11:23;37.50;;;18.63;;
37955;SDS011;23776;51.592;7.180;2022-12-07T00:13:52;38.97;;;19.52;;
37955;SDS011;23776;51.592;7.180;2022-12-07T00:16:21;41.40;;;19.08;;
37955;SDS011;23776;51.592;7.180;2022-12-07T00:18:48;37.90;;;19.98;;
37955;SDS011;23776;51.592;7.180;2022-12-07T00:21:15;40.00;;;19.55;;
37955;SDS011;23776;51.592;7.180;2022-12-07T00:23:42;35.53;;;18.45;;
37955;SDS011;23776;51.592;7.180;2022-12-07T00:26:11;40.53;;;20.48;;
37955;SDS011;23776;51.592;7.180;2022-12-07T00:28:59;34.42;;;17.38;;
37955;SDS011;23776;51.592;7.180;2022-12-07T00:31:31;31.90;;;17.63;;
37955;SDS011;23776;51.592;7.180;2022-12-07T00:33:59;36.70;;;18.45;;
37955;SDS011;23776;51.592;7.180;2022-12-07T00:36:25;37.38;;;18.77;;
37955;SDS011;23776;51.592;7.180;2022-12-07T00:38:51;38.67;;;19.17;;
37955;SDS011;23776;51.592;7.180;2022-12-07T00:41:18;34.85;;;18.98;;
37955;SDS011;23776;51.592;7.180;2022-12-07T00:43:46;39.80;;;20.30;;
37955;SDS011;23776;51.592;7.180;2022-12-07T00:46:12;40.60;;;19.55;;
37955;SDS011;23776;51.592;7.180;2022-12-07T00:48:39;39.03;;;18.42;;
37955;SDS011;23776;51.592;7.180;2022-12-07T00:51:05;41.53;;;19.92;;
37955;SDS011;23776;51.592;7.180;2022-12-07T00:53:33;38.90;;;19.58;;
37955;SDS011;23776;51.592;7.180;2022-12-07T00:56:04;43.03;;;19.85;;
37955;SDS011;23776;51.592;7.180;2022-12-07T00:58:38;46.00;;;19.98;;
37955;SDS011;23776;51.592;7.180;2022-12-07T01:01:04;40.15;;;19.95;;
37955;SDS011;23776;51.592;7.180;2022-12-07T01:03:31;41.92;;;22.17;;
37955;SDS011;23776;51.592;7.180;2022-12-07T01:05:57;42.28;;;21.65;;
37955;SDS011;23776;51.592;7.180;2022-12-07T01:08:23;45.92;;;21.05;;
37955;SDS011;23776;51.592;7.180;2022-12-07T01:10:57;39.08;;;20.83;;
37955;SDS011;23776;51.592;7.180;2022-12-07T01:13:31;49.45;;;21.02;;
37955;SDS011;23776;51.592;7.180;2022-12-07T01:15:58;43.03;;;21.60;;
37955;SDS011;23776;51.592;7.180;2022-12-07T01:18:26;42.75;;;22.10;;
37955;SDS011;23776;51.592;7.180;2022-12-07T01:20:59;40.13;;;19.60;;
37955;SDS011;23776;51.592;7.180;2022-12-07T01:23:30;46.28;;;22.10;;
37955;SDS011;23776;51.592;7.180;2022-12-07T01:25:56;42.78;;;20.58;;
37955;SDS011;23776;51.592;7.180;2022-12-07T01:28:23;42.72;;;21.65;;
37955;SDS011;23776;51.592;7.180;2022-12-07T01:31:23;40.78;;;20.58;;
37955;SDS011;23776;51.592;7.180;2022-12-07T01:33:43;42.40;;;21.55;;
37955;SDS011;23776;51.592;7.180;2022-12-07T01:38:54;41.22;;;20.42;;
37955;SDS011;23776;51.592;7.180;2022-12-07T01:41:22;36.90;;;20.27;;
37955;SDS011;23776;51.592;7.180;2022-12-07T01:46:34;40.45;;;18.52;;
37955;SDS011;23776;51.592;7.180;2022-12-07T01:49:00;40.75;;;20.33;;
37955;SDS011;23776;51.592;7.180;2022-12-07T01:51:27;45.15;;;22.00;;
37955;SDS011;23776;51.592;7.180;2022-12-07T01:53:53;43.40;;;20.75;;
37955;SDS011;23776;51.592;7.180;2022-12-07T01:56:20;42.85;;;19.80;;
37955;SDS011;23776;51.592;7.180;2022-12-07T01:58:49;40.70;;;20.55;;
37955;SDS011;23776;51.592;7.180;2022-12-07T02:01:16;41.75;;;20.55;;
37955;SDS011;23776;51.592;7.180;2022-12-07T02:03:43;39.55;;;20.63;;
37955;SDS011;23776;51.592;7.180;2022-12-07T02:06:10;42.08;;;20.92;;
37955;SDS011;23776;51.592;7.180;2022-12-07T02:08:40;45.60;;;20.90;;
37955;SDS011;23776;51.592;7.180;2022-12-07T02:11:07;36.58;;;18.92;;
37955;SDS011;23776;51.592;7.180;2022-12-07T02:13:34;38.97;;;20.38;;
37955;SDS011;23776;51.592;7.180;2022-12-07T02:18:58;42.05;;;21.38;;
37955;SDS011;23776;51.592;7.180;2022-12-07T02:30:03;40.92;;;19.80;;
37955;SDS011;23776;51.592;7.180;2022-12-07T02:34:59;39.35;;;19.50;;
37955;SDS011;23776;51.592;7.180;2022-12-07T02:40:25;40.53;;;19.98;;
37955;SDS011;23776;51.592;7.180;2022-12-07T02:42:58;39.92;;;19.05;;
37955;SDS011;23776;51.592;7.180;2022-12-07T02:45:44;44.97;;;19.33;;
37955;SDS011;23776;51.592;7.180;2022-12-07T02:48:12;37.05;;;18.30;;
37955;SDS011;23776;51.592;7.180;2022-12-07T02:50:44;33.47;;;18.33;;
37955;SDS011;23776;51.592;7.180;2022-12-07T02:53:32;40.33;;;20.48;;
37955;SDS011;23776;51.592;7.180;2022-12-07T02:56:01;40.92;;;19.90;;
37955;SDS011;23776;51.592;7.180;2022-12-07T03:02:16;38.70;;;18.75;;
37955;SDS011;23776;51.592;7.180;2022-12-07T03:07:46;36.38;;;19.75;;
37955;SDS011;23776;51.592;7.180;2022-12-07T03:13:15;39.10;;;18.25;;
37955;SDS011;23776;51.592;7.180;2022-12-07T03:16:14;36.42;;;16.35;;
37955;SDS011;23776;51.592;7.180;2022-12-07T03:18:49;35.08;;;17.60;;
37955;SDS011;23776;51.592;7.180;2022-12-07T03:21:20;34.90;;;16.55;;
37955;SDS011;23776;51.592;7.180;2022-12-07T03:23:58;36.70;;;17.88;;
37955;SDS011;23776;51.592;7.180;2022-12-07T03:26:30;35.20;;;16.65;;
37955;SDS011;23776;51.592;7.180;2022-12-07T03:29:00;36.47;;;18.40;;
37955;SDS011;23776;51.592;7.180;2022-12-07T03:31:33;39.72;;;19.13;;
37955;SDS011;23776;51.592;7.180;2022-12-07T03:36:48;45.88;;;22.52;;
37955;SDS011;23776;51.592;7.180;2022-12-07T03:41:54;45.67;;;22.15;;
37955;SDS011;23776;51.592;7.180;2022-12-07T03:44:22;46.47;;;22.55;;
37955;SDS011;23776;51.592;7.180;2022-12-07T03:49:46;48.35;;;22.67;;
37955;SDS011;23776;51.592;7.180;2022-12-07T03:52:29;44.08;;;20.88;;
37955;SDS011;23776;51.592;7.180;2022-12-07T03:55:08;49.05;;;21.45;;
37955;SDS011;23776;51.592;7.180;2022-12-07T03:57:38;42.97;;;21.27;;
37955;SDS011;23776;51.592;7.180;2022-12-07T04:00:06;49.55;;;20.25;;
37955;SDS011;23776;51.592;7.180;2022-12-07T04:02:32;45.08;;;20.67;;
37955;SDS011;23776;51.592;7.180;2022-12-07T04:04:59;44.67;;;21.42;;
37955;SDS011;23776;51.592;7.180;2022-12-07T04:07:24;47.40;;;21.45;;
37955;SDS011;23776;51.592;7.180;2022-12-07T04:09:50;43.10;;;20.10;;
37955;SDS011;23776;51.592;7.180;2022-12-07T04:12:16;50.50;;;19.60;;
37955;SDS011;23776;51.592;7.180;2022-12-07T04:14:41;58.05;;;22.08;;
37955;SDS011;23776;51.592;7.180;2022-12-07T04:17:07;41.30;;;18.95;;
37955;SDS011;23776;51.592;7.180;2022-12-07T04:19:33;50.47;;;20.98;;
37955;SDS011;23776;51.592;7.180;2022-12-07T04:22:00;53.60;;;19.83;;
37955;SDS011;23776;51.592;7.180;2022-12-07T04:24:27;41.30;;;20.77;;
37955;SDS011;23776;51.592;7.180;2022-12-07T04:26:53;46.33;;;20.23;;
37955;SDS011;23776;51.592;7.180;2022-12-07T04:29:19;49.88;;;19.17;;
37955;SDS011;23776;51.592;7.180;2022-12-07T04:31:45;49.85;;;21.67;;
37955;SDS011;23776;51.592;7.180;2022-12-07T04:34:11;48.95;;;21.45;;
37955;SDS011;23776;51.592;7.180;2022-12-07T04:36:37;46.25;;;20.98;;
37955;SDS011;23776;51.592;7.180;2022-12-07T04:39:04;51.85;;;19.95;;
37955;SDS011;23776;51.592;7.180;2022-12-07T04:41:30;46.13;;;20.05;;
37955;SDS011;23776;51.592;7.180;2022-12-07T04:43:57;42.75;;;19.38;;
37955;SDS011;23776;51.592;7.180;2022-12-07T04:46:28;43.63;;;18.50;;
37955;SDS011;23776;51.592;7.180;2022-12-07T04:48:55;44.60;;;19.80;;
37955;SDS011;23776;51.592;7.180;2022-12-07T04:51:22;52.03;;;19.75;;
37955;SDS011;23776;51.592;7.180;2022-12-07T04:53:49;41.17;;;19.02;;
37955;SDS011;23776;51.592;7.180;2022-12-07T04:56:16;44.42;;;20.20;;
37955;SDS011;23776;51.592;7.180;2022-12-07T04:58:43;46.65;;;19.90;;
37955;SDS011;23776;51.592;7.180;2022-12-07T05:01:09;49.50;;;20.10;;
37955;SDS011;23776;51.592;7.180;2022-12-07T05:03:36;39.92;;;18.70;;
37955;SDS011;23776;51.592;7.180;2022-12-07T05:06:02;50.65;;;19.85;;
37955;SDS011;23776;51.592;7.180;2022-12-07T05:08:28;41.95;;;17.90;;
37955;SDS011;23776;51.592;7.180;2022-12-07T05:10:53;49.47;;;19.88;;
37955;SDS011;23776;51.592;7.180;2022-12-07T05:13:19;41.95;;;17.70;;
37955;SDS011;23776;51.592;7.180;2022-12-07T05:15:46;45.42;;;18.70;;
37955;SDS011;23776;51.592;7.180;2022-12-07T05:18:12;36.05;;;18.02;;
37955;SDS011;23776;51.592;7.180;2022-12-07T05:20:38;45.25;;;18.08;;
37955;SDS011;23776;51.592;7.180;2022-12-07T05:23:04;38.85;;;16.50;;
37955;SDS011;23776;51.592;7.180;2022-12-07T05:25:30;37.22;;;15.93;;
37955;SDS011;23776;51.592;7.180;2022-12-07T05:27:56;33.20;;;16.50;;
37955;SDS011;23776;51.592;7.180;2022-12-07T05:30:22;37.28;;;16.92;;
37955;SDS011;23776;51.592;7.180;2022-12-07T05:32:49;40.42;;;18.55;;
37955;SDS011;23776;51.592;7.180;2022-12-07T05:35:15;38.38;;;17.85;;
37955;SDS011;23776;51.592;7.180;2022-12-07T05:37:41;37.83;;;17.88;;
37955;SDS011;23776;51.592;7.180;2022-12-07T05:40:07;41.03;;;17.75;;
37955;SDS011;23776;51.592;7.180;2022-12-07T05:42:33;39.60;;;19.05;;
37955;SDS011;23776;51.592;7.180;2022-12-07T05:44:59;36.90;;;18.45;;
37955;SDS011;23776;51.592;7.180;2022-12-07T05:47:25;41.15;;;17.65;;
37955;SDS011;23776;51.592;7.180;2022-12-07T05:49:50;40.85;;;17.83;;
37955;SDS011;23776;51.592;7.180;2022-12-07T05:52:16;44.13;;;19.38;;
37955;SDS011;23776;51.592;7.180;2022-12-07T05:54:41;41.47;;;18.17;;
37955;SDS011;23776;51.592;7.180;2022-12-07T05:57:07;36.78;;;16.75;;
37955;SDS011;23776;51.592;7.180;2022-12-07T05:59:33;41.22;;;18.30;;
37955;SDS011;23776;51.592;7.180;2022-12-07T06:01:59;37.10;;;17.05;;
37955;SDS011;23776;51.592;7.180;2022-12-07T06:04:31;34.65;;;16.40;;
37955;SDS011;23776;51.592;7.180;2022-12-07T06:06:59;32.00;;;16.95;;
37955;SDS011;23776;51.592;7.180;2022-12-07T06:09:25;39.13;;;17.85;;
37955;SDS011;23776;51.592;7.180;2022-12-07T06:11:52;42.83;;;19.08;;
37955;SDS011;23776;51.592;7.180;2022-12-07T06:14:36;33.15;;;17.33;;
37955;SDS011;23776;51.592;7.180;2022-12-07T06:17:02;34.67;;;17.02;;
37955;SDS011;23776;51.592;7.180;2022-12-07T06:19:28;35.22;;;17.75;;
37955;SDS011;23776;51.592;7.180;2022-12-07T06:21:53;35.85;;;17.80;;
37955;SDS011;23776;51.592;7.180;2022-12-07T06:24:19;34.33;;;17.73;;
37955;SDS011;23776;51.592;7.180;2022-12-07T06:26:45;38.50;;;18.20;;
37955;SDS011;23776;51.592;7.180;2022-12-07T06:29:11;36.50;;;16.73;;
37955;SDS011;23776;51.592;7.180;2022-12-07T06:31:37;40.67;;;16.98;;
37955;SDS011;23776;51.592;7.180;2022-12-07T06:34:04;37.50;;;16.17;;
37955;SDS011;23776;51.592;7.180;2022-12-07T06:36:31;32.05;;;16.17;;
37955;SDS011;23776;51.592;7.180;2022-12-07T06:38:58;38.17;;;15.90;;
37955;SDS011;23776;51.592;7.180;2022-12-07T06:41:23;37.15;;;15.82;;
37955;SDS011;23776;51.592;7.180;2022-12-07T06:43:49;36.40;;;15.00;;
37955;SDS011;23776;51.592;7.180;2022-12-07T06:46:15;35.00;;;15.80;;
37955;SDS011;23776;51.592;7.180;2022-12-07T06:48:41;35.20;;;15.10;;
37955;SDS011;23776;51.592;7.180;2022-12-07T06:51:08;30.58;;;15.82;;
37955;SDS011;23776;51.592;7.180;2022-12-07T06:53:34;38.28;;;16.00;;
37955;SDS011;23776;51.592;7.180;2022-12-07T06:56:00;33.97;;;17.67;;
37955;SDS011;23776;51.592;7.180;2022-12-07T06:58:25;37.80;;;16.88;;
37955;SDS011;23776;51.592;7.180;2022-12-07T07:00:51;42.05;;;17.00;;
37955;SDS011;23776;51.592;7.180;2022-12-07T07:03:16;36.13;;;16.55;;
37955;SDS011;23776;51.592;7.180;2022-12-07T07:05:43;37.45;;;16.35;;
37955;SDS011;23776;51.592;7.180;2022-12-07T07:08:09;39.53;;;17.75;;
37955;SDS011;23776;51.592;7.180;2022-12-07T07:10:35;38.47;;;17.42;;
37955;SDS011;23776;51.592;7.180;2022-12-07T07:13:01;35.15;;;17.63;;
37955;SDS011;23776;51.592;7.180;2022-12-07T07:15:27;38.58;;;17.58;;
37955;SDS011;23776;51.592;7.180;2022-12-07T07:17:53;40.10;;;17.25;;
37955;SDS011;23776;51.592;7.180;2022-12-07T07:20:18;38.38;;;17.38;;
37955;SDS011;23776;51.592;7.180;2022-12-07T07:22:44;32.80;;;15.85;;
37955;SDS011;23776;51.592;7.180;2022-12-07T07:25:10;37.33;;;16.90;;
37955;SDS011;23776;51.592;7.180;2022-12-07T07:27:35;33.40;;;16.52;;
37955;SDS011;23776;51.592;7.180;2022-12-07T07:30:01;36.10;;;16.10;;
37955;SDS011;23776;51.592;7.180;2022-12-07T07:32:27;37.85;;;16.83;;
37955;SDS011;23776;51.592;7.180;2022-12-07T07:34:53;36.35;;;16.15;;
37955;SDS011;23776;51.592;7.180;2022-12-07T07:37:18;33.25;;;16.48;;
37955;SDS011;23776;51.592;7.180;2022-12-07T07:39:44;33.00;;;16.35;;
37955;SDS011;23776;51.592;7.180;2022-12-07T07:42:10;35.47;;;16.10;;
37955;SDS011;23776;51.592;7.180;2022-12-07T07:44:35;34.40;;;15.35;;
37955;SDS011;23776;51.592;7.180;2022-12-07T07:47:01;34.47;;;16.58;;
37955;SDS011;23776;51.592;7.180;2022-12-07T07:49:27;31.48;;;15.18;;
37955;SDS011;23776;51.592;7.180;2022-12-07T07:51:53;38.55;;;17.13;;
37955;SDS011;23776;51.592;7.180;2022-12-07T07:54:19;38.75;;;16.73;;
37955;SDS011;23776;51.592;7.180;2022-12-07T07:56:44;33.08;;;16.27;;
37955;SDS011;23776;51.592;7.180;2022-12-07T07:59:10;32.00;;;15.05;;
37955;SDS011;23776;51.592;7.180;2022-12-07T08:01:36;37.50;;;15.90;;
37955;SDS011;23776;51.592;7.180;2022-12-07T08:04:01;39.35;;;16.05;;
37955;SDS011;23776;51.592;7.180;2022-12-07T08:06:27;36.75;;;15.85;;
37955;SDS011;23776;51.592;7.180;2022-12-07T08:08:52;39.70;;;16.42;;
37955;SDS011;23776;51.592;7.180;2022-12-07T08:11:18;34.88;;;15.57;;
37955;SDS011;23776;51.592;7.180;2022-12-07T08:13:47;39.80;;;16.92;;
37955;SDS011;23776;51.592;7.180;2022-12-07T08:16:12;35.80;;;16.42;;
37955;SDS011;23776;51.592;7.180;2022-12-07T08:18:40;39.63;;;16.33;;
37955;SDS011;23776;51.592;7.180;2022-12-07T08:21:06;36.65;;;17.38;;
37955;SDS011;23776;51.592;7.180;2022-12-07T08:23:34;38.17;;;16.13;;
37955;SDS011;23776;51.592;7.180;2022-12-07T08:26:04;34.40;;;15.32;;
37955;SDS011;23776;51.592;7.180;2022-12-07T08:28:34;36.55;;;15.65;;
37955;SDS011;23776;51.592;7.180;2022-12-07T08:31:01;35.42;;;15.63;;
37955;SDS011;23776;51.592;7.180;2022-12-07T08:33:28;41.33;;;16.25;;
37955;SDS011;23776;51.592;7.180;2022-12-07T08:35:53;35.33;;;14.93;;
37955;SDS011;23776;51.592;7.180;2022-12-07T08:38:19;31.60;;;15.13;;
37955;SDS011;23776;51.592;7.180;2022-12-07T08:40:52;32.10;;;14.52;;
37955;SDS011;23776;51.592;7.180;2022-12-07T08:43:22;38.45;;;14.88;;
37955;SDS011;23776;51.592;7.180;2022-12-07T08:45:48;36.38;;;16.65;;
37955;SDS011;23776;51.592;7.180;2022-12-07T08:48:37;30.88;;;13.73;;
37955;SDS011;23776;51.592;7.180;2022-12-07T08:51:05;34.50;;;14.63;;
37955;SDS011;23776;51.592;7.180;2022-12-07T08:53:31;37.25;;;14.00;;
37955;SDS011;23776;51.592;7.180;2022-12-07T08:55:58;39.22;;;15.05;;
37955;SDS011;23776;51.592;7.180;2022-12-07T08:58:23;40.72;;;15.02;;
37955;SDS011;23776;51.592;7.180;2022-12-07T09:00:49;33.60;;;12.82;;
37955;SDS011;23776;51.592;7.180;2022-12-07T09:03:15;28.10;;;12.68;;
37955;SDS011;23776;51.592;7.180;2022-12-07T09:05:41;36.33;;;14.02;;
37955;SDS011;23776;51.592;7.180;2022-12-07T09:08:07;35.88;;;12.80;;
37955;SDS011;23776;51.592;7.180;2022-12-07T09:10:33;30.85;;;13.77;;
37955;SDS011;23776;51.592;7.180;2022-12-07T09:12:59;27.88;;;13.20;;
37955;SDS011;23776;51.592;7.180;2022-12-07T09:15:27;37.13;;;14.18;;
37955;SDS011;23776;51.592;7.180;2022-12-07T09:17:54;28.42;;;13.52;;
37955;SDS011;23776;51.592;7.180;2022-12-07T09:20:19;31.10;;;13.10;;
37955;SDS011;23776;51.592;7.180;2022-12-07T09:22:45;34.58;;;12.60;;
37955;SDS011;23776;51.592;7.180;2022-12-07T09:25:11;38.85;;;13.02;;
37955;SDS011;23776;51.592;7.180;2022-12-07T09:27:36;27.95;;;12.07;;
37955;SDS011;23776;51.592;7.180;2022-12-07T09:30:02;34.90;;;10.93;;
37955;SDS011;23776;51.592;7.180;2022-12-07T09:32:29;26.27;;;9.98;;
37955;SDS011;23776;51.592;7.180;2022-12-07T09:34:54;24.83;;;9.57;;
37955;SDS011;23776;51.592;7.180;2022-12-07T09:37:20;21.70;;;8.93;;
37955;SDS011;23776;51.592;7.180;2022-12-07T09:39:46;25.70;;;10.35;;
37955;SDS011;23776;51.592;7.180;2022-12-07T09:42:17;27.85;;;9.80;;
37955;SDS011;23776;51.592;7.180;2022-12-07T09:44:52;29.42;;;9.93;;
37955;SDS011;23776;51.592;7.180;2022-12-07T09:47:18;26.92;;;8.48;;
37955;SDS011;23776;51.592;7.180;2022-12-07T09:49:43;21.13;;;8.93;;
37955;SDS011;23776;51.592;7.180;2022-12-07T09:54:39;25.02;;;8.48;;
37955;SDS011;23776;51.592;7.180;2022-12-07T09:57:09;25.73;;;8.98;;
37955;SDS011;23776;51.592;7.180;2022-12-07T09:59:37;26.40;;;8.30;;
37955;SDS011;23776;51.592;7.180;2022-12-07T10:04:51;19.77;;;7.60;;
37955;SDS011;23776;51.592;7.180;2022-12-07T10:07:17;13.30;;;6.75;;
37955;SDS011;23776;51.592;7.180;2022-12-07T10:09:44;16.08;;;6.22;;
37955;SDS011;23776;51.592;7.180;2022-12-07T10:12:10;19.85;;;7.45;;
37955;SDS011;23776;51.592;7.180;2022-12-07T10:14:38;11.32;;;5.53;;
37955;SDS011;23776;51.592;7.180;2022-12-07T10:22:37;13.82;;;5.65;;
37955;SDS011;23776;51.592;7.180;2022-12-07T10:25:09;14.95;;;5.38;;
37955;SDS011;23776;51.592;7.180;2022-12-07T10:27:44;15.07;;;5.35;;
37955;SDS011;23776;51.592;7.180;2022-12-07T10:30:26;10.40;;;5.60;;
37955;SDS011;23776;51.592;7.180;2022-12-07T10:32:52;14.73;;;4.75;;
37955;SDS011;23776;51.592;7.180;2022-12-07T10:37:48;14.18;;;4.65;;
37955;SDS011;23776;51.592;7.180;2022-12-07T10:40:28;20.25;;;6.15;;
37955;SDS011;23776;51.592;7.180;2022-12-07T10:43:02;21.40;;;6.25;;
37955;SDS011;23776;51.592;7.180;2022-12-07T10:45:29;17.33;;;6.75;;
37955;SDS011;23776;51.592;7.180;2022-12-07T10:53:21;13.70;;;5.90;;
37955;SDS011;23776;51.592;7.180;2022-12-07T11:15:24;17.67;;;5.30;;
37955;SDS011;23776;51.592;7.180;2022-12-07T11:20:53;12.65;;;4.28;;
37955;SDS011;23776;51.592;7.180;2022-12-07T11:24:40;23.05;;;5.53;;
37955;SDS011;23776;51.592;7.180;2022-12-07T11:29:44;17.10;;;5.38;;
37955;SDS011;23776;51.592;7.180;2022-12-07T11:35:08;15.90;;;5.60;;
37955;SDS011;23776;51.592;7.180;2022-12-07T11:38:01;19.70;;;5.57;;
37955;SDS011;23776;51.592;7.180;2022-12-07T11:40:36;16.02;;;5.82;;
37955;SDS011;23776;51.592;7.180;2022-12-07T11:48:46;10.30;;;4.13;;
37955;SDS011;23776;51.592;7.180;2022-12-07T11:51:12;15.02;;;4.68;;
37955;SDS011;23776;51.592;7.180;2022-12-07T11:53:44;10.40;;;4.65;;
37955;SDS011;23776;51.592;7.180;2022-12-07T11:56:13;16.75;;;4.65;;
37955;SDS011;23776;51.592;7.180;2022-12-07T11:58:48;6.55;;;4.05;;
37955;SDS011;23776;51.592;7.180;2022-12-07T12:03:48;14.98;;;4.10;;
37955;SDS011;23776;51.592;7.180;2022-12-07T12:06:16;11.82;;;4.25;;
37955;SDS011;23776;51.592;7.180;2022-12-07T12:22:32;9.48;;;3.20;;
37955;SDS011;23776;51.592;7.180;2022-12-07T12:27:30;12.45;;;3.70;;
37955;SDS011;23776;51.592;7.180;2022-12-07T12:30:00;11.23;;;3.63;;
37955;SDS011;23776;51.592;7.180;2022-12-07T12:32:36;14.40;;;4.05;;
37955;SDS011;23776;51.592;7.180;2022-12-07T12:35:22;11.55;;;3.15;;
37955;SDS011;23776;51.592;7.180;2022-12-07T12:37:52;15.98;;;3.65;;
37955;SDS011;23776;51.592;7.180;2022-12-07T12:42:56;9.38;;;3.25;;
37955;SDS011;23776;51.592;7.180;2022-12-07T12:45:29;8.35;;;2.78;;
37955;SDS011;23776;51.592;7.180;2022-12-07T12:52:55;8.07;;;2.53;;
37955;SDS011;23776;51.592;7.180;2022-12-07T12:58:21;10.68;;;2.38;;
37955;SDS011;23776;51.592;7.180;2022-12-07T13:03:56;20.85;;;2.70;;
37955;SDS011;23776;51.592;7.180;2022-12-07T13:08:54;11.00;;;2.83;;
37955;SDS011;23776;51.592;7.180;2022-12-07T13:11:32;9.90;;;2.20;;
37955;SDS011;23776;51.592;7.180;2022-12-07T13:17:05;13.35;;;2.22;;
37955;SDS011;23776;51.592;7.180;2022-12-07T13:24:59;12.85;;;2.70;;
37955;SDS011;23776;51.592;7.180;2022-12-07T13:27:28;9.75;;;2.65;;
37955;SDS011;23776;51.592;7.180;2022-12-07T13:29:56;8.48;;;3.08;;
37955;SDS011;23776;51.592;7.180;2022-12-07T13:32:26;15.35;;;3.35;;
37955;SDS011;23776;51.592;7.180;2022-12-07T13:34:52;7.78;;;2.78;;
37955;SDS011;23776;51.592;7.180;2022-12-07T13:37:24;13.13;;;3.58;;
37955;SDS011;23776;51.592;7.180;2022-12-07T13:39:55;11.70;;;4.03;;
37955;SDS011;23776;51.592;7.180;2022-12-07T13:44:52;12.95;;;3.83;;
37955;SDS011;23776;51.592;7.180;2022-12-07T13:47:40;9.77;;;3.10;;
37955;SDS011;23776;51.592;7.180;2022-12-07T13:50:29;24.20;;;2.85;;
37955;SDS011;23776;51.592;7.180;2022-12-07T13:52:59;20.20;;;3.53;;
37955;SDS011;23776;51.592;7.180;2022-12-07T13:55:26;7.50;;;2.60;;
37955;SDS011;23776;51.592;7.180;2022-12-07T13:57:54;15.40;;;3.50;;
37955;SDS011;23776;51.592;7.180;2022-12-07T14:00:21;13.70;;;4.15;;
37955;SDS011;23776;51.592;7.180;2022-12-07T14:02:59;10.43;;;3.10;;
37955;SDS011;23776;51.592;7.180;2022-12-07T14:05:30;9.80;;;2.78;;
37955;SDS011;23776;51.592;7.180;2022-12-07T14:08:01;11.25;;;3.25;;
37955;SDS011;23776;51.592;7.180;2022-12-07T14:10:29;9.00;;;3.28;;
37955;SDS011;23776;51.592;7.180;2022-12-07T14:12:55;8.02;;;3.80;;
37955;SDS011;23776;51.592;7.180;2022-12-07T14:15:23;11.90;;;3.42;;
37955;SDS011;23776;51.592;7.180;2022-12-07T14:17:53;13.50;;;3.17;;
37955;SDS011;23776;51.592;7.180;2022-12-07T14:20:36;9.20;;;2.90;;
37955;SDS011;23776;51.592;7.180;2022-12-07T14:23:03;9.15;;;2.95;;
37955;SDS011;23776;51.592;7.180;2022-12-07T14:26:36;18.50;;;5.20;;
37955;SDS011;23776;51.592;7.180;2022-12-07T14:28:37;15.15;;;4.38;;
37955;SDS011;23776;51.592;7.180;2022-12-07T14:31:03;13.48;;;6.68;;
37955;SDS011;23776;51.592;7.180;2022-12-07T14:33:33;19.45;;;7.80;;
37955;SDS011;23776;51.592;7.180;2022-12-07T14:35:59;13.13;;;4.13;;
37955;SDS011;23776;51.592;7.180;2022-12-07T14:38:25;7.20;;;3.97;;
37955;SDS011;23776;51.592;7.180;2022-12-07T14:40:51;16.50;;;3.20;;
37955;SDS011;23776;51.592;7.180;2022-12-07T14:43:18;7.93;;;3.92;;
37955;SDS011;23776;51.592;7.180;2022-12-07T14:45:44;10.93;;;4.18;;
37955;SDS011;23776;51.592;7.180;2022-12-07T14:48:13;9.02;;;3.65;;
37955;SDS011;23776;51.592;7.180;2022-12-07T14:50:41;11.63;;;3.72;;
37955;SDS011;23776;51.592;7.180;2022-12-07T14:53:14;10.65;;;4.05;;
37955;SDS011;23776;51.592;7.180;2022-12-07T14:55:42;9.85;;;3.63;;
37955;SDS011;23776;51.592;7.180;2022-12-07T14:58:12;16.10;;;5.15;;
37955;SDS011;23776;51.592;7.180;2022-12-07T15:00:39;13.85;;;4.72;;
37955;SDS011;23776;51.592;7.180;2022-12-07T15:03:04;18.05;;;7.07;;
37955;SDS011;23776;51.592;7.180;2022-12-07T15:05:30;17.00;;;5.72;;
37955;SDS011;23776;51.592;7.180;2022-12-07T15:07:56;26.45;;;8.65;;
37955;SDS011;23776;51.592;7.180;2022-12-07T15:10:25;16.13;;;5.47;;
37955;SDS011;23776;51.592;7.180;2022-12-07T15:12:55;15.45;;;6.40;;
37955;SDS011;23776;51.592;7.180;2022-12-07T15:15:44;15.18;;;4.65;;
37955;SDS011;23776;51.592;7.180;2022-12-07T15:18:10;14.35;;;5.03;;
37955;SDS011;23776;51.592;7.180;2022-12-07T15:20:35;18.80;;;5.55;;
37955;SDS011;23776;51.592;7.180;2022-12-07T15:23:01;12.77;;;4.80;;
37955;SDS011;23776;51.592;7.180;2022-12-07T15:25:26;11.93;;;4.97;;
37955;SDS011;23776;51.592;7.180;2022-12-07T15:27:52;12.65;;;4.88;;
37955;SDS011;23776;51.592;7.180;2022-12-07T15:30:18;14.02;;;4.93;;
37955;SDS011;23776;51.592;7.180;2022-12-07T15:32:43;11.80;;;4.78;;
37955;SDS011;23776;51.592;7.180;2022-12-07T15:35:09;8.63;;;4.78;;
37955;SDS011;23776;51.592;7.180;2022-12-07T15:37:34;14.77;;;5.35;;
37955;SDS011;23776;51.592;7.180;2022-12-07T15:40:00;12.70;;;4.88;;
37955;SDS011;23776;51.592;7.180;2022-12-07T15:42:25;12.80;;;4.95;;
37955;SDS011;23776;51.592;7.180;2022-12-07T15:44:51;13.75;;;4.88;;
37955;SDS011;23776;51.592;7.180;2022-12-07T15:47:29;14.80;;;4.97;;
37955;SDS011;23776;51.592;7.180;2022-12-07T15:50:02;14.43;;;5.30;;
37955;SDS011;23776;51.592;7.180;2022-12-07T15:52:30;16.90;;;4.88;;
37955;SDS011;23776;51.592;7.180;2022-12-07T15:54:55;13.10;;;5.38;;
37955;SDS011;23776;51.592;7.180;2022-12-07T15:57:21;14.25;;;5.40;;
37955;SDS011;23776;51.592;7.180;2022-12-07T15:59:47;18.17;;;5.90;;
37955;SDS011;23776;51.592;7.180;2022-12-07T16:02:13;24.85;;;6.30;;
37955;SDS011;23776;51.592;7.180;2022-12-07T16:04:38;19.05;;;5.57;;
37955;SDS011;23776;51.592;7.180;2022-12-07T16:07:04;13.40;;;5.65;;
37955;SDS011;23776;51.592;7.180;2022-12-07T16:09:30;12.73;;;5.57;;
37955;SDS011;23776;51.592;7.180;2022-12-07T16:11:56;15.18;;;5.53;;
37955;SDS011;23776;51.592;7.180;2022-12-07T16:14:22;16.25;;;5.95;;
37955;SDS011;23776;51.592;7.180;2022-12-07T16:16:48;15.77;;;6.30;;
37955;SDS011;23776;51.592;7.180;2022-12-07T16:19:14;17.15;;;6.32;;
37955;SDS011;23776;51.592;7.180;2022-12-07T16:21:39;18.45;;;6.20;;
37955;SDS011;23776;51.592;7.180;2022-12-07T16:24:05;16.88;;;6.47;;
37955;SDS011;23776;51.592;7.180;2022-12-07T16:26:32;15.77;;;5.93;;
37955;SDS011;23776;51.592;7.180;2022-12-07T16:28:58;14.32;;;5.72;;
37955;SDS011;23776;51.592;7.180;2022-12-07T16:31:24;17.80;;;6.03;;
37955;SDS011;23776;51.592;7.180;2022-12-07T16:33:55;30.48;;;11.02;;
37955;SDS011;23776;51.592;7.180;2022-12-07T16:36:22;16.42;;;7.68;;
37955;SDS011;23776;51.592;7.180;2022-12-07T16:38:50;15.95;;;5.57;;
37955;SDS011;23776;51.592;7.180;2022-12-07T16:41:15;15.23;;;5.88;;
37955;SDS011;23776;51.592;7.180;2022-12-07T16:43:41;35.53;;;12.05;;
37955;SDS011;23776;51.592;7.180;2022-12-07T16:46:07;16.95;;;5.88;;
37955;SDS011;23776;51.592;7.180;2022-12-07T16:48:34;13.32;;;5.25;;
37955;SDS011;23776;51.592;7.180;2022-12-07T16:51:03;16.20;;;5.60;;
37955;SDS011;23776;51.592;7.180;2022-12-07T16:53:30;17.10;;;5.55;;
37955;SDS011;23776;51.592;7.180;2022-12-07T16:55:55;18.30;;;5.35;;